MiSS Donna — WDG2382 — position and weather

sailwx.info

Track history (hours):
 
Tides and Currents Weather Stations Pressure Air Temp Water Temp Dewpoint Dewpoint Depression Visibility Wind Speed Wind Dir Waves Ship Positions

MiSS Donna

Owner: OCEAN MARINE BOAT RENTALS,LLC, MORGAN CITY, LA. More information available from US FCC via Universal Licensing System and Coast Guard Vessel Documentation Center.

Last reported at 2018-Apr-23 19:07 UTC. Time now 2018-Apr-23 19:31 UTC.
Position N 39°13' W 076°35'.

Length 21 m; draft 2.7 m.

Type: Towing. MMSI: 367515090.

Date/timePositionNaut miles runAvg speedWind from/ knotsBaromVisibWave heightAir tempDewpointWater temp
2018-Apr-23 19:07N 39°13' W 076°35'1 6.4
2018-Apr-23 19:00N 39°13' W 076°34'2 4.3
2018-Apr-23 18:30N 39°15' W 076°35'0 0.0
2018-Apr-23 18:00N 39°15' W 076°35'0 0.0
2018-Apr-23 17:30N 39°15' W 076°35'0 0.0
2018-Apr-23 17:00N 39°15' W 076°35'0 0.0
2018-Apr-23 16:30N 39°15' W 076°35'0 0.0
2018-Apr-23 16:00N 39°15' W 076°35'0 0.0
2018-Apr-23 15:30N 39°15' W 076°35'0 0.0
2018-Apr-23 15:00N 39°15' W 076°35'0 0.0
2018-Apr-23 14:30N 39°15' W 076°35'0 0.0
2018-Apr-23 14:00N 39°15' W 076°35'0 0.0
2018-Apr-23 13:30N 39°15' W 076°35'0 0.0
2018-Apr-23 13:00N 39°15' W 076°35'0 0.0
2018-Apr-23 12:30N 39°15' W 076°35'0 0.0
2018-Apr-23 12:00N 39°15' W 076°35'0 0.9
2018-Apr-23 11:30N 39°15' W 076°35'2 4.2
2018-Apr-23 11:00N 39°13' W 076°34'1 2.1
2018-Apr-23 10:30N 39°13' W 076°35'0 0.1
2018-Apr-23 09:56N 39°13' W 076°35'0 0.0
2018-Apr-23 01:47N 39°13' W 076°35'0 0.0
2018-Apr-22 23:39N 39°13' W 076°35'0 0.0
2018-Apr-22 22:10N 39°13' W 076°35'0 0.0
2018-Apr-22 21:53N 39°13' W 076°35'0 0.0
2018-Apr-22 20:23N 39°13' W 076°35'0 0.0
2018-Apr-22 13:44N 39°13' W 076°35'0 0.0
2018-Apr-22 13:22N 39°13' W 076°35'0 0.0
2018-Apr-22 00:11N 39°13' W 076°35'0 0.0
2018-Apr-21 23:13N 39°13' W 076°35'0 0.0
2018-Apr-21 22:51N 39°13' W 076°35'0 0.0
2018-Apr-21 22:27N 39°13' W 076°35'0 0.0
2018-Apr-21 21:08N 39°13' W 076°35'0 0.0
2018-Apr-21 20:52N 39°13' W 076°35'0 0.0
2018-Apr-21 11:36N 39°13' W 076°35'0 0.0
2018-Apr-21 11:24N 39°13' W 076°35'0 0.0
2018-Apr-21 09:32N 39°13' W 076°35'0 0.0
2018-Apr-21 09:18N 39°13' W 076°35'0 0.0
2018-Apr-21 09:00N 39°13' W 076°35'0 0.0
2018-Apr-21 08:23N 39°13' W 076°35'0 0.0
2018-Apr-21 07:57N 39°13' W 076°35'0 0.0
2018-Apr-21 07:29N 39°13' W 076°35'0 0.0
2018-Apr-21 07:00N 39°13' W 076°35'0 0.0
2018-Apr-21 06:28N 39°13' W 076°35'0 0.0
2018-Apr-21 06:00N 39°13' W 076°35'0 0.0
2018-Apr-21 05:27N 39°13' W 076°35'0 0.0
2018-Apr-21 05:00N 39°13' W 076°35'0 0.0
2018-Apr-21 04:29N 39°13' W 076°35'0 0.0
2018-Apr-21 04:00N 39°13' W 076°35'0 0.0
2018-Apr-21 03:30N 39°13' W 076°35'0 0.0
2018-Apr-21 03:00N 39°13' W 076°35'0 0.0
2018-Apr-21 02:30N 39°13' W 076°35'0 0.0
2018-Apr-21 01:59N 39°13' W 076°35'0 0.0
2018-Apr-21 01:18N 39°13' W 076°35'0 0.0
2018-Apr-21 00:58N 39°13' W 076°35'0 0.0
2018-Apr-21 00:23N 39°13' W 076°35'0 0.0
2018-Apr-20 23:58N 39°13' W 076°35'0 0.0
2018-Apr-20 23:24N 39°13' W 076°35'0 0.0
2018-Apr-20 22:59N 39°13' W 076°35'0 0.0
2018-Apr-20 22:29N 39°13' W 076°35'0 0.0
2018-Apr-20 17:13N 39°13' W 076°35'0 0.0
2018-Apr-20 14:53N 39°13' W 076°35'0 0.1
2018-Apr-20 14:23N 39°13' W 076°35'0 0.1
2018-Apr-20 13:57N 39°13' W 076°35'0 0.1
2018-Apr-20 13:30N 39°13' W 076°35'0 0.1
2018-Apr-20 12:55N 39°13' W 076°35'40281377.4
2018-Apr-20 10:00N 54°43' E 019°08'4028637.7
2018-Apr-20 03:41N 39°13' W 076°35'0 0.0
2018-Apr-19 22:56N 39°13' W 076°35'0 0.0
2018-Apr-19 19:26N 39°13' W 076°35'0 0.0
2018-Apr-19 17:13N 39°13' W 076°35'0 0.0
2018-Apr-19 16:46N 39°13' W 076°35'0 0.0
2018-Apr-19 16:29N 39°13' W 076°35'1 2.8
2018-Apr-19 16:00N 39°13' W 076°33'3 5.0
2018-Apr-19 15:30N 39°15' W 076°35'1 1.0
2018-Apr-19 15:00N 39°16' W 076°35'1 1.7
2018-Apr-19 14:30N 39°15' W 076°34'4 8.2
2018-Apr-19 14:00N 39°12' W 076°30'1 1.5
2018-Apr-19 13:30N 39°13' W 076°31'3 5.9
2018-Apr-19 13:00N 39°13' W 076°35'0 0.0
2018-Apr-19 11:00N 39°13' W 076°35'0 0.0
2018-Apr-19 10:25N 39°13' W 076°35'0 0.0
2018-Apr-19 09:44N 39°13' W 076°35'0 0.0
2018-Apr-19 09:29N 39°13' W 076°35'0 0.0
2018-Apr-19 08:54N 39°13' W 076°35'0 0.0
2018-Apr-19 08:30N 39°13' W 076°35'0 0.0
2018-Apr-19 08:00N 39°13' W 076°35'0 0.0
2018-Apr-19 07:25N 39°13' W 076°35'0 0.0
2018-Apr-19 06:50N 39°13' W 076°35'0 0.0
2018-Apr-19 06:28N 39°13' W 076°35'0 0.0
2018-Apr-19 06:00N 39°13' W 076°35'0 0.0
2018-Apr-19 05:30N 39°13' W 076°35'0 0.0
2018-Apr-19 04:58N 39°13' W 076°35'0 0.0
2018-Apr-19 04:30N 39°13' W 076°35'0 0.0
2018-Apr-19 04:00N 39°13' W 076°35'0 0.0
2018-Apr-19 03:04N 39°13' W 076°35'0 0.0
2018-Apr-19 02:48N 39°13' W 076°35'0 0.0
2018-Apr-19 02:28N 39°13' W 076°35'0 0.0
2018-Apr-19 01:40N 39°13' W 076°35'0 0.0
2018-Apr-18 23:03N 39°13' W 076°35'0 0.0
2018-Apr-18 22:46N 39°13' W 076°35'0 0.0
2018-Apr-18 22:30N 39°13' W 076°35'0 0.0
2018-Apr-18 21:54N 39°13' W 076°35'0 0.4
2018-Apr-18 21:30N 39°13' W 076°35'2 4.0
2018-Apr-18 21:00N 39°15' W 076°34'1 2.9
2018-Apr-18 20:30N 39°15' W 076°35'1 2.5
2018-Apr-18 20:00N 39°15' W 076°34'2 4.0
2018-Apr-18 19:29N 39°13' W 076°35'0 0.0
2018-Apr-18 11:53N 39°13' W 076°35'0 0.0
2018-Apr-18 10:23N 39°13' W 076°35'0 0.0
2018-Apr-18 09:53N 39°13' W 076°35'0 0.0
2018-Apr-18 09:28N 39°13' W 076°35'0 0.0
2018-Apr-18 08:59N 39°13' W 076°35'0 0.0
2018-Apr-18 08:28N 39°13' W 076°35'0 0.0
2018-Apr-18 07:59N 39°13' W 076°35'0 0.0
2018-Apr-18 07:27N 39°13' W 076°35'0 0.0
2018-Apr-18 06:56N 39°13' W 076°35'0 0.0
2018-Apr-18 06:21N 39°13' W 076°35'0 0.0
2018-Apr-18 05:57N 39°13' W 076°35'0 0.0
2018-Apr-18 05:26N 39°13' W 076°35'0 0.0
2018-Apr-18 04:10N 39°13' W 076°35'0 0.0
2018-Apr-18 03:58N 39°13' W 076°35'0 0.0
2018-Apr-18 03:20N 39°13' W 076°35'0 0.0
2018-Apr-18 03:00N 39°13' W 076°35'0 0.0
2018-Apr-18 00:54N 39°13' W 076°35'0 0.0
2018-Apr-18 00:28N 39°13' W 076°35'0 0.0
2018-Apr-17 23:58N 39°13' W 076°35'0 0.0
2018-Apr-17 23:26N 39°13' W 076°35'0 0.0
2018-Apr-17 21:58N 39°13' W 076°35'0 0.0
2018-Apr-17 21:30N 39°13' W 076°35'0 0.0
2018-Apr-17 20:59N 39°13' W 076°35'0 0.0
2018-Apr-17 20:21N 39°13' W 076°35'0 0.0
2018-Apr-17 18:22N 39°13' W 076°35'  
2018-Apr-14 23:53N 39°13' W 076°35'0 0.0
2018-Apr-14 02:20N 39°13' W 076°35'  
Track history (hours):
 
Tides and Currents Weather Stations Pressure Air Temp Water Temp Dewpoint Dewpoint Depression Visibility Wind Speed Wind Dir Waves Ship Positions

MiSS Donna

Owner: OCEAN MARINE BOAT RENTALS,LLC, MORGAN CITY, LA. More information available from US FCC via Universal Licensing System and Coast Guard Vessel Documentation Center.

Last reported at 2018-Apr-23 19:07 UTC. Time now 2018-Apr-23 19:31 UTC.
Position N 39°13' W 076°35'.

Length 21 m; draft 2.7 m.

Type: Towing. MMSI: 367515090.

Date/timePositionNaut miles runAvg speedWind from/ knotsBaromVisibWave heightAir tempDewpointWater temp
2018-Apr-23 19:07N 39°13' W 076°35'1 6.4
2018-Apr-23 19:00N 39°13' W 076°34'2 4.3
2018-Apr-23 18:30N 39°15' W 076°35'0 0.0
2018-Apr-23 18:00N 39°15' W 076°35'0 0.0
2018-Apr-23 17:30N 39°15' W 076°35'0 0.0
2018-Apr-23 17:00N 39°15' W 076°35'0 0.0
2018-Apr-23 16:30N 39°15' W 076°35'0 0.0
2018-Apr-23 16:00N 39°15' W 076°35'0 0.0
2018-Apr-23 15:30N 39°15' W 076°35'0 0.0
2018-Apr-23 15:00N 39°15' W 076°35'0 0.0
2018-Apr-23 14:30N 39°15' W 076°35'0 0.0
2018-Apr-23 14:00N 39°15' W 076°35'0 0.0
2018-Apr-23 13:30N 39°15' W 076°35'0 0.0
2018-Apr-23 13:00N 39°15' W 076°35'0 0.0
2018-Apr-23 12:30N 39°15' W 076°35'0 0.0
2018-Apr-23 12:00N 39°15' W 076°35'0 0.9
2018-Apr-23 11:30N 39°15' W 076°35'2 4.2
2018-Apr-23 11:00N 39°13' W 076°34'1 2.1
2018-Apr-23 10:30N 39°13' W 076°35'0 0.1
2018-Apr-23 09:56N 39°13' W 076°35'0 0.0
2018-Apr-23 01:47N 39°13' W 076°35'0 0.0
2018-Apr-22 23:39N 39°13' W 076°35'0 0.0
2018-Apr-22 22:10N 39°13' W 076°35'0 0.0
2018-Apr-22 21:53N 39°13' W 076°35'0 0.0
2018-Apr-22 20:23N 39°13' W 076°35'0 0.0
2018-Apr-22 13:44N 39°13' W 076°35'0 0.0
2018-Apr-22 13:22N 39°13' W 076°35'0 0.0
2018-Apr-22 00:11N 39°13' W 076°35'0 0.0
2018-Apr-21 23:13N 39°13' W 076°35'0 0.0
2018-Apr-21 22:51N 39°13' W 076°35'0 0.0
2018-Apr-21 22:27N 39°13' W 076°35'0 0.0
2018-Apr-21 21:08N 39°13' W 076°35'0 0.0
2018-Apr-21 20:52N 39°13' W 076°35'0 0.0
2018-Apr-21 11:36N 39°13' W 076°35'0 0.0
2018-Apr-21 11:24N 39°13' W 076°35'0 0.0
2018-Apr-21 09:32N 39°13' W 076°35'0 0.0
2018-Apr-21 09:18N 39°13' W 076°35'0 0.0
2018-Apr-21 09:00N 39°13' W 076°35'0 0.0
2018-Apr-21 08:23N 39°13' W 076°35'0 0.0
2018-Apr-21 07:57N 39°13' W 076°35'0 0.0
2018-Apr-21 07:29N 39°13' W 076°35'0 0.0
2018-Apr-21 07:00N 39°13' W 076°35'0 0.0
2018-Apr-21 06:28N 39°13' W 076°35'0 0.0
2018-Apr-21 06:00N 39°13' W 076°35'0 0.0
2018-Apr-21 05:27N 39°13' W 076°35'0 0.0
2018-Apr-21 05:00N 39°13' W 076°35'0 0.0
2018-Apr-21 04:29N 39°13' W 076°35'0 0.0
2018-Apr-21 04:00N 39°13' W 076°35'0 0.0
2018-Apr-21 03:30N 39°13' W 076°35'0 0.0
2018-Apr-21 03:00N 39°13' W 076°35'0 0.0
2018-Apr-21 02:30N 39°13' W 076°35'0 0.0
2018-Apr-21 01:59N 39°13' W 076°35'0 0.0
2018-Apr-21 01:18N 39°13' W 076°35'0 0.0
2018-Apr-21 00:58N 39°13' W 076°35'0 0.0
2018-Apr-21 00:23N 39°13' W 076°35'0 0.0
2018-Apr-20 23:58N 39°13' W 076°35'0 0.0
2018-Apr-20 23:24N 39°13' W 076°35'0 0.0
2018-Apr-20 22:59N 39°13' W 076°35'0 0.0
2018-Apr-20 22:29N 39°13' W 076°35'0 0.0
2018-Apr-20 17:13N 39°13' W 076°35'0 0.0
2018-Apr-20 14:53N 39°13' W 076°35'0 0.1
2018-Apr-20 14:23N 39°13' W 076°35'0 0.1
2018-Apr-20 13:57N 39°13' W 076°35'0 0.1
2018-Apr-20 13:30N 39°13' W 076°35'0 0.1
2018-Apr-20 12:55N 39°13' W 076°35'40281377.4
2018-Apr-20 10:00N 54°43' E 019°08'4028637.7
2018-Apr-20 03:41N 39°13' W 076°35'0 0.0
2018-Apr-19 22:56N 39°13' W 076°35'0 0.0
2018-Apr-19 19:26N 39°13' W 076°35'0 0.0
2018-Apr-19 17:13N 39°13' W 076°35'0 0.0
2018-Apr-19 16:46N 39°13' W 076°35'0 0.0
2018-Apr-19 16:29N 39°13' W 076°35'1 2.8
2018-Apr-19 16:00N 39°13' W 076°33'3 5.0
2018-Apr-19 15:30N 39°15' W 076°35'1 1.0
2018-Apr-19 15:00N 39°16' W 076°35'1 1.7
2018-Apr-19 14:30N 39°15' W 076°34'4 8.2
2018-Apr-19 14:00N 39°12' W 076°30'1 1.5
2018-Apr-19 13:30N 39°13' W 076°31'3 5.9
2018-Apr-19 13:00N 39°13' W 076°35'0 0.0
2018-Apr-19 11:00N 39°13' W 076°35'0 0.0
2018-Apr-19 10:25N 39°13' W 076°35'0 0.0
2018-Apr-19 09:44N 39°13' W 076°35'0 0.0
2018-Apr-19 09:29N 39°13' W 076°35'0 0.0
2018-Apr-19 08:54N 39°13' W 076°35'0 0.0
2018-Apr-19 08:30N 39°13' W 076°35'0 0.0
2018-Apr-19 08:00N 39°13' W 076°35'0 0.0
2018-Apr-19 07:25N 39°13' W 076°35'0 0.0
2018-Apr-19 06:50N 39°13' W 076°35'0 0.0
2018-Apr-19 06:28N 39°13' W 076°35'0 0.0
2018-Apr-19 06:00N 39°13' W 076°35'0 0.0
2018-Apr-19 05:30N 39°13' W 076°35'0 0.0
2018-Apr-19 04:58N 39°13' W 076°35'0 0.0
2018-Apr-19 04:30N 39°13' W 076°35'0 0.0
2018-Apr-19 04:00N 39°13' W 076°35'0 0.0
2018-Apr-19 03:04N 39°13' W 076°35'0 0.0
2018-Apr-19 02:48N 39°13' W 076°35'0 0.0
2018-Apr-19 02:28N 39°13' W 076°35'0 0.0
2018-Apr-19 01:40N 39°13' W 076°35'0 0.0
2018-Apr-18 23:03N 39°13' W 076°35'0 0.0
2018-Apr-18 22:46N 39°13' W 076°35'0 0.0
2018-Apr-18 22:30N 39°13' W 076°35'0 0.0
2018-Apr-18 21:54N 39°13' W 076°35'0 0.4
2018-Apr-18 21:30N 39°13' W 076°35'2 4.0
2018-Apr-18 21:00N 39°15' W 076°34'1 2.9
2018-Apr-18 20:30N 39°15' W 076°35'1 2.5
2018-Apr-18 20:00N 39°15' W 076°34'2 4.0
2018-Apr-18 19:29N 39°13' W 076°35'0 0.0
2018-Apr-18 11:53N 39°13' W 076°35'0 0.0
2018-Apr-18 10:23N 39°13' W 076°35'0 0.0
2018-Apr-18 09:53N 39°13' W 076°35'0 0.0
2018-Apr-18 09:28N 39°13' W 076°35'0 0.0
2018-Apr-18 08:59N 39°13' W 076°35'0 0.0
2018-Apr-18 08:28N 39°13' W 076°35'0 0.0
2018-Apr-18 07:59N 39°13' W 076°35'0 0.0
2018-Apr-18 07:27N 39°13' W 076°35'0 0.0
2018-Apr-18 06:56N 39°13' W 076°35'0 0.0
2018-Apr-18 06:21N 39°13' W 076°35'0 0.0
2018-Apr-18 05:57N 39°13' W 076°35'0 0.0
2018-Apr-18 05:26N 39°13' W 076°35'0 0.0
2018-Apr-18 04:10N 39°13' W 076°35'0 0.0
2018-Apr-18 03:58N 39°13' W 076°35'0 0.0
2018-Apr-18 03:20N 39°13' W 076°35'0 0.0
2018-Apr-18 03:00N 39°13' W 076°35'0 0.0
2018-Apr-18 00:54N 39°13' W 076°35'0 0.0
2018-Apr-18 00:28N 39°13' W 076°35'0 0.0
2018-Apr-17 23:58N 39°13' W 076°35'0 0.0
2018-Apr-17 23:26N 39°13' W 076°35'0 0.0
2018-Apr-17 21:58N 39°13' W 076°35'0 0.0
2018-Apr-17 21:30N 39°13' W 076°35'0 0.0
2018-Apr-17 20:59N 39°13' W 076°35'0 0.0
2018-Apr-17 20:21N 39°13' W 076°35'0 0.0
2018-Apr-17 18:22N 39°13' W 076°35'  
2018-Apr-14 23:53N 39°13' W 076°35'0 0.0
2018-Apr-14 02:20N 39°13' W 076°35'  

Dump ship's entire track history